createdAt,value
2019-01-02T00:00:03.557Z,2.13
2019-01-02T00:02:32.593Z,1.97
2019-01-02T00:05:20.429Z,2.03
2019-01-02T00:08:08.348Z,1.97
2019-01-02T00:10:38.778Z,1.93
2019-01-02T00:15:55.101Z,2.60
2019-01-02T00:18:25.530Z,1.90
2019-01-02T00:21:13.483Z,1.77
2019-01-02T00:24:01.312Z,2.43
2019-01-02T00:27:10.108Z,1.90
2019-01-02T00:29:40.528Z,1.97
2019-01-02T00:32:09.234Z,2.97
2019-01-02T00:34:39.660Z,2.17
2019-01-02T00:37:08.399Z,2.00
2019-01-02T00:39:38.818Z,2.63
2019-01-02T00:42:07.524Z,1.80
2019-01-02T00:44:36.215Z,1.80
2019-01-02T00:50:32.191Z,1.10
2019-01-02T00:53:12.558Z,1.33
2019-01-02T00:55:50.760Z,1.07
2019-01-02T00:58:38.670Z,0.97
2019-01-02T01:01:26.513Z,1.40
2019-01-02T01:04:16.042Z,1.50
2019-01-02T01:07:03.859Z,1.10
2019-01-02T01:09:51.776Z,0.90
2019-01-02T01:12:22.186Z,1.23
2019-01-02T01:14:50.941Z,1.40
2019-01-02T01:17:21.372Z,1.20
2019-01-02T01:19:50.145Z,1.33
2019-01-02T01:22:18.968Z,1.47
2019-01-02T01:24:47.676Z,1.60
2019-01-02T01:27:18.099Z,1.27
2019-01-02T01:30:06.084Z,1.47
2019-01-02T01:32:34.753Z,1.73
2019-01-02T01:35:03.478Z,1.67
2019-01-02T01:37:51.447Z,2.07
2019-01-02T01:40:20.143Z,1.77
2019-01-02T01:42:48.901Z,1.60
2019-01-02T01:45:36.921Z,1.50
2019-01-02T01:48:24.745Z,1.93
2019-01-02T01:54:00.274Z,2.50
2019-01-02T01:59:24.152Z,3.00
2019-01-02T02:01:52.816Z,1.57
2019-01-02T02:04:40.757Z,1.90
2019-01-02T02:07:11.245Z,2.23
2019-01-02T02:09:59.361Z,2.17
2019-01-02T02:12:47.383Z,4.03
2019-01-02T02:15:35.139Z,1.40
2019-01-02T02:18:03.850Z,2.97
2019-01-02T02:20:32.543Z,2.50
2019-01-02T02:23:20.439Z,2.27
2019-01-02T02:25:49.146Z,2.67
2019-01-02T02:28:17.915Z,5.63
2019-01-02T02:30:46.592Z,2.33
2019-01-02T02:33:17.035Z,2.27
2019-01-02T02:35:47.415Z,1.37
2019-01-02T02:38:17.849Z,2.53
2019-01-02T02:40:48.243Z,2.23
2019-01-02T02:43:16.904Z,2.77
2019-01-02T02:45:45.713Z,2.53
2019-01-02T02:48:16.154Z,2.67
2019-01-02T02:50:46.585Z,2.20
2019-01-02T02:53:15.435Z,3.50
2019-01-02T02:56:05.133Z,2.53
2019-01-02T02:58:35.569Z,2.70
2019-01-02T03:01:06.083Z,2.20
2019-01-02T03:03:55.603Z,2.40
2019-01-02T03:06:26.055Z,2.53
2019-01-02T03:08:56.461Z,3.03
2019-01-02T03:11:25.218Z,2.10
2019-01-02T03:13:55.688Z,2.47
2019-01-02T03:16:45.837Z,2.40
2019-01-02T03:19:15.605Z,2.53
2019-01-02T03:22:05.283Z,2.77
2019-01-02T03:24:35.643Z,3.17
2019-01-02T03:27:06.121Z,3.23
2019-01-02T03:29:54.166Z,2.27
2019-01-02T03:32:42.099Z,2.47
2019-01-02T03:35:12.600Z,3.23
2019-01-02T03:40:49.498Z,2.73
2019-01-02T03:46:05.829Z,2.43
2019-01-02T03:48:34.598Z,2.40
2019-01-02T03:53:38.735Z,3.70
2019-01-02T03:56:07.436Z,2.87
2019-01-02T03:58:55.416Z,2.93
2019-01-02T04:01:43.320Z,2.57
2019-01-02T04:04:31.348Z,3.97
2019-01-02T04:07:00.028Z,2.80
2019-01-02T04:09:28.787Z,2.77
2019-01-02T04:12:16.760Z,2.93
2019-01-02T04:14:45.536Z,3.03
2019-01-02T04:17:14.370Z,4.27
2019-01-02T04:19:43.161Z,3.70
2019-01-02T04:22:11.911Z,3.90
2019-01-02T04:24:40.648Z,3.07
2019-01-02T04:27:09.493Z,2.70
2019-01-02T04:29:38.154Z,3.07
2019-01-02T04:32:26.115Z,2.80
2019-01-02T04:35:14.082Z,3.07
2019-01-02T04:37:42.749Z,3.00
2019-01-02T04:40:51.250Z,2.40
2019-01-02T04:43:39.199Z,2.47
2019-01-02T04:46:07.893Z,3.90
2019-01-02T04:48:36.620Z,2.83
2019-01-02T04:53:39.820Z,2.80
2019-01-02T04:56:08.607Z,1.63
2019-01-02T04:58:37.371Z,3.63
2019-01-02T05:01:06.079Z,2.13
2019-01-02T05:03:34.826Z,2.97
2019-01-02T05:06:22.805Z,2.83
2019-01-02T05:08:51.567Z,2.80
2019-01-02T05:11:20.231Z,3.87
2019-01-02T05:13:49.009Z,3.50
2019-01-02T05:16:36.940Z,4.27
2019-01-02T05:19:24.991Z,3.47
2019-01-02T05:22:12.898Z,4.33
2019-01-02T05:25:00.768Z,3.07
2019-01-02T05:27:29.561Z,3.53
2019-01-02T05:29:58.226Z,3.47
2019-01-02T05:32:46.274Z,4.00
2019-01-02T05:35:15.004Z,3.40
2019-01-02T05:38:02.828Z,4.43
2019-01-02T05:40:50.736Z,3.23
2019-01-02T05:43:19.456Z,3.27
2019-01-02T05:48:36.245Z,3.77
2019-01-02T05:51:24.044Z,3.17
2019-01-02T05:53:52.752Z,4.30
2019-01-02T05:58:55.960Z,3.50
2019-01-02T06:01:43.920Z,4.93
2019-01-02T06:04:31.842Z,3.47
2019-01-02T06:07:00.615Z,2.60
2019-01-02T06:09:29.503Z,4.53
2019-01-02T06:12:17.401Z,3.43
2019-01-02T06:15:05.358Z,4.47
2019-01-02T06:17:53.329Z,4.00
2019-01-02T06:20:41.248Z,3.70
2019-01-02T06:23:10.077Z,3.67
2019-01-02T06:25:38.781Z,2.77
2019-01-02T06:28:26.569Z,2.93
2019-01-02T06:30:55.274Z,5.20
2019-01-02T06:33:24.062Z,3.87
2019-01-02T06:36:12.017Z,6.13
2019-01-02T06:38:59.970Z,3.67
2019-01-02T06:41:47.935Z,3.77
2019-01-02T06:44:35.899Z,2.70
2019-01-02T06:47:04.800Z,3.37
2019-01-02T06:49:52.837Z,4.33
2019-01-02T06:55:28.469Z,2.80
2019-01-02T06:58:16.434Z,3.43
2019-01-02T07:01:04.388Z,3.87
2019-01-02T07:03:33.176Z,3.70
2019-01-02T07:06:21.201Z,4.40
2019-01-02T07:09:09.143Z,4.47
2019-01-02T07:11:56.969Z,3.83
2019-01-02T07:14:25.652Z,3.03
2019-01-02T07:19:47.571Z,4.30
2019-01-02T07:22:35.564Z,2.50
2019-01-02T07:27:58.870Z,3.90
2019-01-02T07:34:14.298Z,3.50
2019-01-02T07:37:22.812Z,5.37
2019-01-02T07:40:30.016Z,3.20
2019-01-02T07:43:37.250Z,3.53
2019-01-02T07:46:45.801Z,3.23
2019-01-02T07:49:53.016Z,4.37
2019-01-02T07:53:01.456Z,3.13
2019-01-02T07:56:08.673Z,4.03
2019-01-02T07:59:17.218Z,4.73
2019-01-02T08:02:25.600Z,5.50
2019-01-02T08:05:33.374Z,5.97
2019-01-02T08:08:41.869Z,4.43
2019-01-02T08:11:49.109Z,3.30
2019-01-02T08:15:03.117Z,3.07
2019-01-02T08:18:07.863Z,3.17
2019-01-02T08:21:16.366Z,4.30
2019-01-02T08:24:23.622Z,2.57
2019-01-02T08:27:30.797Z,3.47
2019-01-02T08:30:39.340Z,3.30
2019-01-02T08:33:47.838Z,3.33
2019-01-02T08:36:56.353Z,3.23
2019-01-02T08:40:05.203Z,2.97
2019-01-02T08:43:13.678Z,2.77
2019-01-02T08:46:20.949Z,3.73
2019-01-02T08:49:28.176Z,4.03
2019-01-02T08:52:35.448Z,5.73
2019-01-02T08:55:43.944Z,3.53
2019-01-02T08:58:51.207Z,3.80
2019-01-02T09:01:58.447Z,3.67
2019-01-02T09:05:05.640Z,4.00
2019-01-02T09:08:14.139Z,4.30
2019-01-02T09:11:21.371Z,5.40
2019-01-02T09:14:28.729Z,3.87
2019-01-02T09:17:37.439Z,3.37
2019-01-02T09:20:46.224Z,5.23
2019-01-02T09:23:53.903Z,3.40
2019-01-02T09:27:03.543Z,2.93
2019-01-02T09:30:13.231Z,4.23
2019-01-02T09:33:23.544Z,4.47
2019-01-02T09:36:30.940Z,4.20
2019-01-02T09:39:39.619Z,4.40
2019-01-02T09:42:46.840Z,4.70
2019-01-02T09:45:54.036Z,4.70
2019-01-02T09:49:02.525Z,3.57
2019-01-02T09:52:09.704Z,2.97
2019-01-02T09:55:18.184Z,5.47
2019-01-02T09:58:25.383Z,4.97
2019-01-02T10:01:32.608Z,3.17
2019-01-02T10:04:39.810Z,4.47
2019-01-02T10:07:47.055Z,4.60
2019-01-02T10:10:54.273Z,4.67
2019-01-02T10:14:02.770Z,5.03
2019-01-02T10:17:11.276Z,3.80
2019-01-02T10:20:18.566Z,6.03
2019-01-02T10:23:25.796Z,5.33
2019-01-02T10:26:33.033Z,4.43
2019-01-02T10:29:41.850Z,3.73
2019-01-02T10:32:50.353Z,4.37
2019-01-02T10:35:57.550Z,5.33
2019-01-02T10:39:04.872Z,5.50
2019-01-02T10:42:13.375Z,5.03
2019-01-02T10:45:20.603Z,3.60
2019-01-02T10:48:29.268Z,4.70
2019-01-02T10:51:37.804Z,5.83
2019-01-02T10:54:45.033Z,4.17
2019-01-02T10:57:53.591Z,4.07
2019-01-02T11:01:02.069Z,5.47
2019-01-02T11:04:10.551Z,5.53
2019-01-02T11:07:17.821Z,4.57
2019-01-02T11:10:26.304Z,6.73
2019-01-02T11:13:33.527Z,3.80
2019-01-02T11:16:40.999Z,4.20
2019-01-02T11:19:48.467Z,5.03
2019-01-02T11:22:55.759Z,4.83
2019-01-02T11:26:02.970Z,5.03
2019-01-02T11:29:10.211Z,6.17
2019-01-02T11:32:17.628Z,5.40
2019-01-02T11:35:24.830Z,6.33
2019-01-02T11:38:32.085Z,3.67
2019-01-02T11:41:40.638Z,4.43
2019-01-02T11:44:49.218Z,4.63
2019-01-02T11:47:17.948Z,4.93
2019-01-02T11:49:46.755Z,4.27
2019-01-02T11:52:34.768Z,4.80
2019-01-02T11:55:22.691Z,4.20
2019-01-02T11:58:10.693Z,4.47
2019-01-02T12:00:58.651Z,4.37
2019-01-02T12:08:49.268Z,6.43
2019-01-02T12:11:37.401Z,6.53
2019-01-02T12:14:25.374Z,9.00
2019-01-02T12:16:54.041Z,5.93
2019-01-02T12:19:43.102Z,5.37
2019-01-02T12:25:45.312Z,3.63
2019-01-02T12:28:14.101Z,4.70
2019-01-02T12:30:42.878Z,3.97
2019-01-02T12:33:11.534Z,4.67
2019-01-02T12:35:40.288Z,4.10
2019-01-02T12:38:28.129Z,4.23
2019-01-02T12:40:56.901Z,4.20
2019-01-02T12:43:25.642Z,5.50
2019-01-02T12:45:54.387Z,4.63
2019-01-02T12:48:23.171Z,6.77
2019-01-02T12:53:26.272Z,7.77
2019-01-02T12:55:55.126Z,4.47
2019-01-02T12:58:23.823Z,3.73
2019-01-02T13:01:32.307Z,5.57
2019-01-02T13:04:40.862Z,8.13
2019-01-02T13:07:48.071Z,3.87
2019-01-02T13:10:56.625Z,5.10
2019-01-02T13:14:05.147Z,5.50
2019-01-02T13:17:13.676Z,3.93
2019-01-02T13:20:20.992Z,8.13
2019-01-02T13:23:29.501Z,4.63
2019-01-02T13:26:38.001Z,4.97
2019-01-02T13:29:45.236Z,8.13
2019-01-02T13:32:53.749Z,7.50
2019-01-02T13:36:02.257Z,3.83
2019-01-02T13:39:10.765Z,9.57
2019-01-02T13:42:19.303Z,5.87
2019-01-02T13:45:27.753Z,4.20
2019-01-02T13:48:34.923Z,6.83
2019-01-02T13:51:43.387Z,4.10
2019-01-02T13:54:31.225Z,5.30
2019-01-02T13:57:19.143Z,3.77
2019-01-02T13:59:47.926Z,3.40
2019-01-02T14:02:16.650Z,5.50
2019-01-02T14:05:25.148Z,4.57
2019-01-02T14:08:13.100Z,4.03
2019-01-02T14:10:41.797Z,2.90
2019-01-02T14:13:10.517Z,3.90
2019-01-02T14:15:39.182Z,6.90
2019-01-02T14:18:07.916Z,4.40
2019-01-02T14:20:55.878Z,3.43
2019-01-02T14:23:43.921Z,3.90
2019-01-02T14:26:31.912Z,3.80
2019-01-02T14:29:19.875Z,4.50
2019-01-02T14:36:56.938Z,2.57
2019-01-02T14:39:44.853Z,2.87
2019-01-02T14:42:32.822Z,6.60
2019-01-02T14:45:20.783Z,7.67
2019-01-02T14:48:08.694Z,7.80
2019-01-02T14:50:56.640Z,5.63
2019-01-02T14:53:44.618Z,7.13
2019-01-02T14:56:32.537Z,5.80
2019-01-02T14:59:01.259Z,1.53
2019-01-02T15:01:49.171Z,2.57
2019-01-02T15:04:17.889Z,7.23
2019-01-02T15:06:46.607Z,4.63
2019-01-02T15:09:15.333Z,6.67
2019-01-02T15:12:03.349Z,10.60
2019-01-02T15:14:51.479Z,7.87
2019-01-02T15:17:39.466Z,9.47
2019-01-02T15:20:47.911Z,4.73
2019-01-02T15:23:35.766Z,4.20
2019-01-02T15:26:04.562Z,4.30
2019-01-02T15:28:52.406Z,3.27
2019-01-02T15:31:40.368Z,3.67
2019-01-02T15:34:28.348Z,3.17
2019-01-02T15:37:16.266Z,4.73
2019-01-02T15:39:44.977Z,5.17
2019-01-02T15:42:32.815Z,4.80
2019-01-02T15:45:20.658Z,5.50
2019-01-02T15:47:49.325Z,4.83
2019-01-02T15:52:52.343Z,5.40
2019-01-02T15:55:21.015Z,4.80
2019-01-02T15:57:49.796Z,3.93
2019-01-02T16:00:18.454Z,3.60
2019-01-02T16:02:47.224Z,3.40
2019-01-02T16:05:15.986Z,3.90
2019-01-02T16:07:44.727Z,5.87
2019-01-02T16:10:13.503Z,5.97
2019-01-02T16:13:01.432Z,7.73
2019-01-02T16:18:04.426Z,6.87
2019-01-02T16:20:33.098Z,4.90
2019-01-02T16:23:01.821Z,6.23
2019-01-02T16:25:30.539Z,4.07
2019-01-02T16:27:59.193Z,5.00
2019-01-02T16:30:27.971Z,6.00
2019-01-02T16:32:56.667Z,4.57
2019-01-02T16:35:25.383Z,5.00
2019-01-02T16:37:54.099Z,4.47
2019-01-02T16:40:30.109Z,4.70
2019-01-02T16:42:58.812Z,5.20
2019-01-02T16:48:53.549Z,2.60
2019-01-02T16:51:41.900Z,3.33
2019-01-02T16:54:12.299Z,2.97
2019-01-02T16:57:00.269Z,3.10
2019-01-02T16:59:28.965Z,3.17
2019-01-02T17:01:57.612Z,2.43
2019-01-02T17:04:26.335Z,3.00
2019-01-02T17:06:55.053Z,2.90
2019-01-02T17:09:23.747Z,3.13
2019-01-02T17:12:11.703Z,3.23
2019-01-02T17:14:59.511Z,3.27
2019-01-02T17:17:47.607Z,4.80
2019-01-02T17:20:35.645Z,4.00
2019-01-02T17:23:23.676Z,4.63
2019-01-02T17:26:11.589Z,3.23
2019-01-02T17:28:59.428Z,4.80
2019-01-02T17:31:47.346Z,3.83
2019-01-02T17:34:16.069Z,4.47
2019-01-02T17:37:04.109Z,6.33
2019-01-02T17:39:52.060Z,9.33
2019-01-02T17:42:20.850Z,7.40
2019-01-02T17:44:49.621Z,8.07
2019-01-02T17:50:11.566Z,7.03
2019-01-02T17:52:59.486Z,6.13
2019-01-02T17:55:47.473Z,5.47
2019-01-02T17:58:35.441Z,4.10
2019-01-02T18:01:44.046Z,3.70
2019-01-02T18:09:54.399Z,3.27
2019-01-02T18:12:42.344Z,4.60
2019-01-02T18:15:11.121Z,3.07
2019-01-02T18:17:59.100Z,3.57
2019-01-02T18:20:46.999Z,3.27
2019-01-02T18:23:34.977Z,3.63
2019-01-02T18:26:22.961Z,17.00
2019-01-02T18:29:10.923Z,19.40
2019-01-02T18:31:58.781Z,11.17
2019-01-02T18:34:46.781Z,14.20
2019-01-02T18:37:34.753Z,10.23
2019-01-02T18:40:03.641Z,5.40
2019-01-02T18:42:51.444Z,4.90
2019-01-02T18:45:39.367Z,6.03
2019-01-02T18:48:27.359Z,5.53
2019-01-02T18:51:15.200Z,3.60
2019-01-02T18:54:03.190Z,3.73
2019-01-02T18:56:51.281Z,2.83
2019-01-02T18:59:39.367Z,4.37
2019-01-02T19:02:28.927Z,3.93
2019-01-02T19:11:31.942Z,3.40
2019-01-02T19:17:13.009Z,4.93
2019-01-02T19:20:00.959Z,3.57
2019-01-02T19:22:48.926Z,3.63
2019-01-02T19:25:36.873Z,4.40
2019-01-02T19:28:24.766Z,2.83
2019-01-02T19:31:12.709Z,6.33
2019-01-02T19:34:00.493Z,4.87
2019-01-02T19:36:48.349Z,6.33
2019-01-02T19:39:36.323Z,6.43
2019-01-02T19:42:24.165Z,3.77
2019-01-02T19:44:52.886Z,3.20
2019-01-02T19:47:21.538Z,3.20
2019-01-02T19:50:09.656Z,3.03
2019-01-02T19:55:52.004Z,4.77
2019-01-02T19:58:39.916Z,6.80
2019-01-02T20:04:21.446Z,6.67
2019-01-02T20:07:09.301Z,6.20
2019-01-02T20:09:57.225Z,6.30
2019-01-02T20:12:45.225Z,4.83
2019-01-02T20:15:53.625Z,3.40
2019-01-02T20:18:41.586Z,3.37
2019-01-02T20:21:29.426Z,4.27
2019-01-02T20:24:17.340Z,5.03
2019-01-02T20:27:05.299Z,7.93
2019-01-02T20:29:53.276Z,3.77
2019-01-02T20:35:28.981Z,4.73
2019-01-02T20:38:16.995Z,10.93
2019-01-02T20:41:05.036Z,12.77
2019-01-02T20:43:54.639Z,6.43
2019-01-02T20:46:42.649Z,23.80
2019-01-02T20:49:30.688Z,13.60
2019-01-02T20:52:18.561Z,24.37
2019-01-02T20:55:06.504Z,16.40
2019-01-02T20:57:54.599Z,10.40
2019-01-02T21:00:23.369Z,4.97
2019-01-02T21:03:11.269Z,6.03
2019-01-02T21:05:59.102Z,4.13
2019-01-02T21:08:47.097Z,3.70
2019-01-02T21:11:34.872Z,3.30
2019-01-02T21:14:22.830Z,3.00
2019-01-02T21:17:10.759Z,3.80
2019-01-02T21:19:59.719Z,2.43
2019-01-02T21:22:48.373Z,3.77
2019-01-02T21:25:36.207Z,3.13
2019-01-02T21:28:24.286Z,5.10
2019-01-02T21:31:12.241Z,6.67
2019-01-02T21:34:00.216Z,5.27
2019-01-02T21:36:48.000Z,3.00
2019-01-02T21:39:35.973Z,2.67
2019-01-02T21:42:23.953Z,2.17
2019-01-02T21:44:53.000Z,2.27
2019-01-02T21:47:42.287Z,2.70
2019-01-02T21:50:30.129Z,3.07
2019-01-02T21:53:18.043Z,2.70
2019-01-02T21:56:06.279Z,2.93
2019-01-02T21:58:54.192Z,1.90
2019-01-02T22:01:42.142Z,2.10
2019-01-02T22:04:29.972Z,1.90
2019-01-02T22:06:58.667Z,2.03
2019-01-02T22:09:46.603Z,2.70
2019-01-02T22:12:34.565Z,2.27
2019-01-02T22:15:22.468Z,3.07
2019-01-02T22:18:10.304Z,3.83
2019-01-02T22:24:05.070Z,4.40
2019-01-02T22:26:52.999Z,4.97
2019-01-02T22:29:40.954Z,4.03
2019-01-02T22:32:28.882Z,3.80
2019-01-02T22:35:16.843Z,2.20
2019-01-02T22:38:04.771Z,2.43
2019-01-02T22:40:52.606Z,2.07
2019-01-02T22:43:40.525Z,4.87
2019-01-02T22:51:36.622Z,5.17
2019-01-02T22:54:24.595Z,4.17
2019-01-02T22:57:12.598Z,3.63
2019-01-02T22:59:41.306Z,4.60
2019-01-02T23:05:37.534Z,8.90
2019-01-02T23:11:34.020Z,13.17
2019-01-02T23:14:42.652Z,15.27
2019-01-02T23:17:49.667Z,22.90
2019-01-02T23:23:45.628Z,3.80
2019-01-02T23:26:52.588Z,2.00
2019-01-02T23:29:59.609Z,2.57
2019-01-02T23:33:06.572Z,1.90
2019-01-02T23:36:13.599Z,1.90
2019-01-02T23:44:51.134Z,1.53
2019-01-02T23:47:58.335Z,1.37
2019-01-02T23:50:46.166Z,1.90
2019-01-02T23:53:53.171Z,2.27
2019-01-02T23:57:00.143Z,1.60
